Time;durP1;ratioP1;P1;durP2;ratioP2;P2;SDS_P1;SDS_P2;PMS_P1;PMS_P2;Temp;Humidity;BMP_temperature;BMP_pressure;BME280_temperature;BME280_humidity;BME280_pressure;Samples;Min_cycle;Max_cycle;Signal;HPM_P1;HPM_P2
2022/03/17 00:01:12;;;;;;;;;8.00;7.50;;;;;12.52;65.61;101573.78;5075030;28;46111;-82
2022/03/17 00:03:37;;;;;;;;;11.75;9.50;;;;;12.48;65.59;101586.09;5077657;28;45400;-81
2022/03/17 00:06:03;;;;;;;;;11.75;11.50;;;;;12.37;65.87;101577.09;5077727;28;45392;-80
2022/03/17 00:08:28;;;;;;;;;12.00;9.00;;;;;12.35;66.21;101567.38;5070330;28;45404;-79
2022/03/17 00:10:53;;;;;;;;;11.75;11.75;;;;;12.50;65.65;101591.38;5076297;28;45588;-79
2022/03/17 00:13:19;;;;;;;;;14.75;13.00;;;;;12.48;65.62;101595.78;5075811;28;45298;-82
2022/03/17 00:15:44;;;;;;;;;18.50;13.50;;;;;12.44;66.29;101609.78;5074834;28;45950;-79
2022/03/17 00:18:10;;;;;;;;;10.50;10.50;;;;;12.39;66.28;101612.38;5072219;28;45712;-79
2022/03/17 00:20:36;;;;;;;;;10.75;10.25;;;;;12.32;65.84;101599.94;5077594;28;45459;-80
2022/03/17 00:23:02;;;;;;;;;14.75;13.00;;;;;12.22;65.81;101605.97;5075488;28;45524;-80
2022/03/17 00:25:29;;;;;;;;;13.25;12.75;;;;;12.19;66.27;101605.91;5077230;28;46163;-80
2022/03/17 00:27:55;;;;;;;;;11.00;11.00;;;;;12.07;66.15;101585.50;5058275;28;45336;-78
2022/03/17 00:30:21;;;;;;;;;12.75;11.75;;;;;12.09;66.85;101586.41;5073562;28;45528;-76
2022/03/17 00:32:46;;;;;;;;;16.75;15.25;;;;;12.22;66.56;101617.44;5074645;28;45300;-80
2022/03/17 00:37:55;;;;;;;;;15.75;15.25;;;;;12.22;66.66;101645.59;5077388;28;45537;-79
2022/03/17 00:40:22;;;;;;;;;19.00;18.00;;;;;12.14;66.55;101626.09;5075056;28;45452;-79
2022/03/17 00:42:47;;;;;;;;;20.75;19.00;;;;;12.23;67.13;101644.72;5079221;28;45412;-78
2022/03/17 00:45:13;;;;;;;;;15.25;15.25;;;;;12.17;66.99;101640.22;5080401;28;45285;-78
2022/03/17 00:47:39;;;;;;;;;13.75;13.00;;;;;12.17;66.67;101649.91;5080686;28;45585;-78
2022/03/17 00:50:07;;;;;;;;;20.25;19.50;;;;;12.17;67.59;101652.53;5075074;28;45304;-77
2022/03/17 00:52:33;;;;;;;;;22.50;20.50;;;;;12.17;66.67;101660.47;5076992;28;45378;-78
2022/03/17 00:54:58;;;;;;;;;19.75;18.75;;;;;12.17;66.89;101655.19;5062088;28;47046;-79
2022/03/17 00:57:24;;;;;;;;;20.25;18.00;;;;;12.15;67.26;101657.81;5080264;28;45351;-74
2022/03/17 00:59:49;;;;;;;;;23.25;20.75;;;;;11.97;66.83;101626.72;5080058;28;45335;-75
2022/03/17 01:02:15;;;;;;;;;24.50;22.25;;;;;12.11;67.38;101668.31;5073314;28;45627;-75
2022/03/17 01:04:41;;;;;;;;;22.75;22.25;;;;;12.13;67.33;101666.59;5080233;28;46152;-77
2022/03/17 01:07:06;;;;;;;;;29.50;22.50;;;;;12.12;67.66;101667.44;5080546;28;45368;-77
2022/03/17 01:09:32;;;;;;;;;21.50;21.25;;;;;12.15;67.93;101684.22;5080413;28;45282;-77
2022/03/17 01:11:58;;;;;;;;;26.25;23.00;;;;;12.18;66.95;101686.03;5074519;28;45420;-74
2022/03/17 01:14:23;;;;;;;;;19.50;19.00;;;;;12.14;67.57;101682.44;5077642;28;46326;-77
2022/03/17 01:16:50;;;;;;;;;28.25;21.75;;;;;12.14;67.88;101677.16;5079919;28;45879;-76
2022/03/17 01:19:19;;;;;;;;;25.00;21.25;;;;;12.14;67.66;101686.84;5080128;28;45286;-77
2022/03/17 01:21:45;;;;;;;;;25.25;25.00;;;;;12.17;66.85;101689.53;5074197;28;45329;-78
2022/03/17 01:24:10;;;;;;;;;24.00;23.75;;;;;12.09;67.59;101684.13;5082390;28;46178;-82
2022/03/17 01:26:36;;;;;;;;;24.25;23.00;;;;;12.10;67.12;101692.94;5079991;28;45429;-83
2022/03/17 01:29:02;;;;;;;;;28.50;24.50;;;;;12.06;67.83;101693.75;5078070;28;45797;-77
2022/03/17 01:31:28;;;;;;;;;28.50;25.50;;;;;12.04;67.71;101685.81;5079750;28;45594;-77
2022/03/17 01:33:54;;;;;;;;;28.50;25.75;;;;;12.03;68.45;101694.59;5074085;28;46663;-78
2022/03/17 01:36:19;;;;;;;;;20.25;20.25;;;;;12.03;68.65;101705.16;5079907;28;45314;-78
2022/03/17 01:38:45;;;;;;;;;24.25;24.25;;;;;11.99;67.97;101711.25;5080015;28;45441;-77
2022/03/17 01:41:10;;;;;;;;;21.00;19.75;;;;;11.98;67.73;101717.38;5080202;28;45527;-78
2022/03/17 01:43:35;;;;;;;;;24.00;24.00;;;;;11.91;68.47;101708.50;5074588;28;46852;-74
2022/03/17 01:46:01;;;;;;;;;25.25;21.75;;;;;11.94;68.94;101713.81;5079803;28;45423;-77
2022/03/17 01:48:26;;;;;;;;;24.25;23.00;;;;;11.84;68.73;101714.53;5079704;28;45172;-76
2022/03/17 01:50:53;;;;;;;;;23.25;21.25;;;;;11.80;68.33;101706.50;5079789;28;45204;-76
2022/03/17 01:53:20;;;;;;;;;26.00;23.25;;;;;11.88;68.51;101718.09;5073955;28;46550;-81
2022/03/17 01:55:45;;;;;;;;;26.75;24.50;;;;;11.72;68.54;101693.13;5076692;28;45363;-80
2022/03/17 01:58:10;;;;;;;;;20.50;19.75;;;;;11.86;69.15;101731.28;5079958;28;45453;-78
2022/03/17 02:00:37;;;;;;;;;28.25;27.00;;;;;11.84;69.04;101727.72;5079706;28;45497;-78
2022/03/17 02:03:03;;;;;;;;;25.25;23.75;;;;;11.85;68.34;101740.06;5076896;28;46137;-76
2022/03/17 02:05:29;;;;;;;;;25.75;25.00;;;;;11.84;68.94;101738.28;5074194;27;45358;-78
2022/03/17 02:07:54;;;;;;;;;27.75;25.75;;;;;11.87;68.75;101743.59;5079647;28;45228;-80
2022/03/17 02:10:21;;;;;;;;;28.25;26.25;;;;;11.86;69.36;101744.47;5079788;28;45308;-79
2022/03/17 02:15:34;;;;;;;;;30.50;27.00;;;;;11.88;68.25;101741.84;5074317;28;45311;-78
2022/03/17 02:18:02;;;;;;;;;18.25;17.25;;;;;11.90;68.49;101762.13;5079183;28;45337;-80
2022/03/17 02:20:28;;;;;;;;;24.75;24.75;;;;;11.94;68.34;101768.38;5077277;28;45550;-78
2022/03/17 02:25:33;;;;;;;;;23.00;19.50;;;;;11.93;68.20;101770.13;5079339;28;45631;-77
2022/03/17 02:25:42;;;;;;;;;26.00;22.75;;;;;11.96;68.07;101769.28;5073890;28;45480;-78
2022/03/17 02:28:08;;;;;;;;;24.00;24.00;;;;;11.92;68.29;101767.47;5079061;28;45517;-77
2022/03/17 02:30:37;;;;;;;;;23.50;22.00;;;;;11.93;68.16;101779.81;5061297;28;45380;-77
2022/03/17 02:33:16;;;;;;;;;26.25;23.75;;;;;11.93;68.76;101785.09;5078911;28;45755;-77
2022/03/17 02:35:42;;;;;;;;;25.25;23.25;;;;;11.91;67.83;101777.16;5074056;28;45484;-76
2022/03/17 02:38:08;;;;;;;;;18.25;18.00;;;;;11.88;67.15;101782.34;5078988;28;45314;-77
2022/03/17 02:40:36;;;;;;;;;17.75;16.75;;;;;11.90;67.86;101787.66;5079253;28;45388;-77
2022/03/17 02:43:04;;;;;;;;;18.75;18.75;;;;;11.79;68.15;101774.22;5078688;28;46180;-77
2022/03/17 02:45:31;;;;;;;;;31.25;27.75;;;;;11.86;68.08;101772.63;5078852;28;45361;-76
2022/03/17 02:47:56;;;;;;;;;23.25;20.00;;;;;11.86;68.10;101777.91;5073795;28;45634;-77
2022/03/17 02:50:22;;;;;;;;;21.00;20.00;;;;;11.70;67.54;101751.16;5078949;28;45564;-78
2022/03/17 02:52:48;;;;;;;;;23.25;19.75;;;;;11.86;67.96;101772.63;5078659;28;46868;-77
2022/03/17 02:55:14;;;;;;;;;19.75;18.25;;;;;11.76;67.81;101787.38;5074670;28;45489;-78
2022/03/17 02:57:41;;;;;;;;;23.50;20.50;;;;;11.70;67.45;101785.47;5058320;27;45596;-77
2022/03/17 03:00:09;;;;;;;;;20.75;20.75;;;;;11.80;67.07;101794.50;5038674;28;45379;-76
2022/03/17 03:02:35;;;;;;;;;16.25;16.00;;;;;11.80;67.92;101793.63;5037560;28;46428;-77
2022/03/17 03:05:02;;;;;;;;;24.50;19.75;;;;;11.76;67.05;101797.94;5038193;28;45487;-77
2022/03/17 03:07:27;;;;;;;;;17.25;16.50;;;;;11.76;67.87;101797.03;5037195;28;45747;-78
2022/03/17 03:09:55;;;;;;;;;20.00;20.00;;;;;11.74;67.21;101812.84;5038007;28;45173;-77
2022/03/17 03:12:20;;;;;;;;;23.00;21.50;;;;;11.64;67.92;101802.97;5037787;28;47143;-77
2022/03/17 03:14:47;;;;;;;;;22.75;22.75;;;;;11.63;67.79;101801.16;5037760;28;45807;-77
2022/03/17 03:17:12;;;;;;;;;25.25;23.00;;;;;11.66;66.73;101819.72;5036931;28;45485;-77
2022/03/17 03:19:37;;;;;;;;;19.50;18.00;;;;;11.58;67.07;101822.19;5035510;28;45442;-77
2022/03/17 03:22:03;;;;;;;;;15.50;14.50;;;;;11.54;67.29;101822.09;5036462;28;46133;-78
2022/03/17 03:24:28;;;;;;;;;19.75;19.75;;;;;11.47;66.94;101826.38;5037941;28;45220;-77
2022/03/17 03:26:54;;;;;;;;;16.25;15.50;;;;;11.42;67.04;101815.72;5037951;28;45476;-82
2022/03/17 03:29:22;;;;;;;;;15.75;14.00;;;;;11.35;66.98;101824.38;5037491;28;45366;-80
2022/03/17 03:31:53;;;;;;;;;19.00;15.25;;;;;11.31;67.39;101826.91;5042446;28;46644;-81
2022/03/17 03:34:20;;;;;;;;;11.00;9.50;;;;;11.29;67.52;101824.22;5049258;28;45315;-80
2022/03/17 03:39:30;;;;;;;;;22.75;17.25;;;;;11.22;67.28;101835.50;5058143;28;45141;-77
2022/03/17 03:41:56;;;;;;;;;21.00;18.25;;;;;11.13;67.74;101832.66;5047289;28;47126;-76
2022/03/17 03:44:22;;;;;;;;;18.00;16.50;;;;;11.06;67.57;101834.25;5039330;28;45292;-78
2022/03/17 03:46:47;;;;;;;;;17.25;17.25;;;;;11.08;66.90;101840.47;5038993;28;45311;-77
2022/03/17 03:49:13;;;;;;;;;17.00;15.75;;;;;11.13;67.28;101861.66;5037333;28;45493;-79
2022/03/17 03:51:38;;;;;;;;;16.75;16.75;;;;;11.11;67.28;101864.25;5050265;28;47071;-76
2022/03/17 03:54:13;;;;;;;;;17.75;16.25;;;;;11.14;67.22;101881.91;5037735;28;45346;-77
2022/03/17 03:56:42;;;;;;;;;23.75;19.25;;;;;11.08;67.46;101882.66;5037705;28;45378;-77
2022/03/17 03:59:08;;;;;;;;;22.25;18.75;;;;;11.12;67.04;101891.53;5075300;28;45424;-78
2022/03/17 04:01:34;;;;;;;;;18.25;18.25;;;;;11.12;66.69;101894.16;5075572;28;46898;-77
2022/03/17 04:04:01;;;;;;;;;19.25;17.50;;;;;11.14;67.64;101895.97;5072465;28;45420;-78
2022/03/17 04:06:27;;;;;;;;;16.50;15.00;;;;;11.09;67.09;101892.34;5072824;28;45217;-79
2022/03/17 04:08:52;;;;;;;;;17.25;15.75;;;;;11.11;66.85;101897.66;5072364;28;45454;-77
2022/03/17 04:11:18;;;;;;;;;12.25;12.25;;;;;10.99;65.93;101894.75;5074797;28;46749;-78
2022/03/17 04:13:43;;;;;;;;;16.50;16.00;;;;;11.07;66.73;101916.88;5067273;28;46873;-78
2022/03/17 04:16:09;;;;;;;;;13.00;12.00;;;;;11.05;65.88;101926.50;5057420;28;45487;-77
2022/03/17 04:18:34;;;;;;;;;15.25;13.75;;;;;10.95;65.12;101924.50;5057240;28;45295;-78
2022/03/17 04:21:00;;;;;;;;;11.75;11.75;;;;;10.95;64.87;101932.41;5056348;28;46596;-76
2022/03/17 04:23:25;;;;;;;;;17.00;14.00;;;;;10.82;65.03;101929.47;5077230;28;45261;-79
2022/03/17 04:25:51;;;;;;;;;9.25;8.75;;;;;10.72;64.51;101923.94;5072137;28;45547;-77
2022/03/17 04:28:16;;;;;;;;;15.75;12.50;;;;;10.76;64.53;101949.50;5077678;28;45364;-79
2022/03/17 04:30:41;;;;;;;;;10.00;9.00;;;;;10.72;64.05;101952.94;5077148;28;47266;-79
2022/03/17 04:33:07;;;;;;;;;12.00;10.75;;;;;10.75;64.70;101947.72;5068808;28;46516;-79
2022/03/17 04:35:32;;;;;;;;;8.00;8.00;;;;;10.71;64.37;101954.66;5064322;27;45511;-78
2022/03/17 04:37:58;;;;;;;;;12.00;11.50;;;;;10.71;63.45;101964.31;5057043;28;45540;-78
2022/03/17 04:40:23;;;;;;;;;11.75;10.00;;;;;10.68;64.32;101965.09;5056684;28;45390;-77
2022/03/17 04:42:48;;;;;;;;;11.50;10.00;;;;;10.64;64.29;101971.16;5058835;28;45345;-78
2022/03/17 04:45:14;;;;;;;;;9.25;9.25;;;;;10.67;64.49;101973.88;5072082;28;45361;-76
2022/03/17 04:47:39;;;;;;;;;10.50;10.50;;;;;10.66;64.04;101974.72;5077244;28;45877;-78
2022/03/17 04:50:06;;;;;;;;;12.25;10.75;;;;;10.75;63.75;101982.88;5077290;28;45909;-77
2022/03/17 04:55:15;;;;;;;;;5.50;5.50;;;;;10.72;63.09;101988.06;5076611;28;45448;-78
2022/03/17 04:57:40;;;;;;;;;8.50;7.00;;;;;10.67;62.88;101981.78;5071856;28;45448;-77
2022/03/17 05:00:06;;;;;;;;;10.00;8.00;;;;;10.74;63.27;102003.94;5075428;28;45501;-76
2022/03/17 05:02:32;;;;;;;;;2.25;1.25;;;;;10.75;63.17;101997.81;5075156;28;45429;-78
2022/03/17 05:04:58;;;;;;;;;6.50;6.25;;;;;10.75;62.69;102003.06;5074708;28;45572;-77
2022/03/17 05:07:23;;;;;;;;;7.25;7.00;;;;;10.75;62.65;102005.72;5071222;28;45293;-78
2022/03/17 05:09:48;;;;;;;;;8.00;8.00;;;;;10.71;62.81;101999.47;5076668;28;45804;-78
2022/03/17 05:12:14;;;;;;;;;11.25;10.00;;;;;10.62;62.94;102001.84;5076690;28;45450;-80
2022/03/17 05:14:40;;;;;;;;;6.50;6.50;;;;;10.66;62.81;102010.72;5074368;28;45300;-80
2022/03/17 05:17:05;;;;;;;;;8.75;8.00;;;;;10.59;63.11;102007.03;5072683;28;45400;-81
2022/03/17 05:19:30;;;;;;;;;6.25;6.25;;;;;10.65;63.38;102019.50;5075471;28;45301;-80
2022/03/17 05:21:56;;;;;;;;;8.75;8.75;;;;;10.60;62.87;102024.63;5074449;28;45487;-80
2022/03/17 05:24:21;;;;;;;;;7.00;7.00;;;;;10.41;63.33;101993.34;5074194;28;45559;-80
2022/03/17 05:26:47;;;;;;;;;9.50;9.50;;;;;10.53;63.36;102027.97;5080088;28;45262;-80
2022/03/17 05:29:12;;;;;;;;;8.75;8.75;;;;;10.49;63.10;102036.59;5079705;28;46781;-81
2022/03/17 05:31:38;;;;;;;;;10.50;9.25;;;;;10.44;63.19;102038.22;5080256;28;45392;-81
2022/03/17 05:34:03;;;;;;;;;8.00;8.00;;;;;10.41;63.93;102046.91;5079599;28;45308;-78
2022/03/17 05:36:29;;;;;;;;;7.00;7.00;;;;;10.35;63.75;102046.75;5075597;28;45222;-81
2022/03/17 05:38:54;;;;;;;;;8.00;7.00;;;;;10.35;63.29;102049.38;5080018;28;45951;-79
2022/03/17 05:41:21;;;;;;;;;6.75;6.75;;;;;10.38;64.30;102061.75;5080098;28;46426;-81
2022/03/17 05:43:46;;;;;;;;;8.50;8.50;;;;;10.41;63.82;102064.47;5079964;28;45235;-81
2022/03/17 05:46:11;;;;;;;;;9.25;9.25;;;;;10.50;63.67;102064.72;5075004;28;45438;-80
2022/03/17 05:48:39;;;;;;;;;5.25;5.25;;;;;10.48;63.91;102067.31;5079806;28;46485;-82
2022/03/17 05:51:05;;;;;;;;;8.00;6.75;;;;;10.53;63.38;102070.09;5079583;28;45530;-81
2022/03/17 05:53:30;;;;;;;;;5.50;5.50;;;;;10.52;63.34;102079.75;5079930;28;45286;-79
2022/03/17 05:55:56;;;;;;;;;8.25;8.00;;;;;10.54;63.77;102079.78;5072845;28;45528;-81
2022/03/17 05:58:21;;;;;;;;;6.00;6.00;;;;;10.50;63.55;102085.81;5076851;28;47081;-81
2022/03/17 06:00:46;;;;;;;;;8.75;8.75;;;;;10.46;63.45;102083.94;5079464;28;45409;-81
2022/03/17 06:03:12;;;;;;;;;7.00;7.00;;;;;10.46;63.17;102087.47;5079394;28;45563;-81
2022/03/17 06:05:37;;;;;;;;;10.75;7.00;;;;;10.52;63.97;102095.56;5074577;28;45448;-81
2022/03/17 06:08:05;;;;;;;;;8.75;8.75;;;;;10.54;62.93;102099.13;5080518;28;46006;-82
2022/03/17 06:10:33;;;;;;;;;10.00;10.00;;;;;10.59;63.41;102101.88;5079369;28;45211;-82
2022/03/17 06:13:00;;;;;;;;;11.00;9.00;;;;;10.61;63.49;102115.09;5079083;28;45504;-82
2022/03/17 06:15:26;;;;;;;;;19.00;13.00;;;;;10.61;62.94;102113.38;5074507;28;45404;-82
2022/03/17 06:17:54;;;;;;;;;12.50;11.75;;;;;10.65;62.89;102123.16;5075467;28;45602;-80
2022/03/17 06:20:22;;;;;;;;;9.50;9.00;;;;;10.54;62.66;102101.78;5075116;28;45465;-79
2022/03/17 06:22:50;;;;;;;;;10.75;9.00;;;;;10.61;62.24;102121.28;5079380;28;45388;-81
2022/03/17 06:25:18;;;;;;;;;9.00;9.00;;;;;10.62;62.93;102130.09;5079397;28;45898;-79
2022/03/17 06:27:44;;;;;;;;;8.75;8.75;;;;;10.56;62.16;102121.16;5066769;28;47405;-81
2022/03/17 06:30:15;;;;;;;;;10.00;10.00;;;;;10.62;61.97;102145.91;5057524;28;45603;-76
2022/03/17 06:32:42;;;;;;;;;8.00;8.00;;;;;10.67;61.80;102149.56;5052067;28;45424;-81
2022/03/17 06:35:15;;;;;;;;;7.25;6.00;;;;;10.69;61.81;102150.47;5057361;28;45499;-80
2022/03/17 06:37:41;;;;;;;;;9.00;8.25;;;;;10.67;62.16;102149.56;5061732;28;45494;-82
2022/03/17 06:40:07;;;;;;;;;8.75;8.50;;;;;10.64;61.14;102152.09;5072187;28;45440;-83
2022/03/17 06:42:33;;;;;;;;;10.25;8.75;;;;;10.74;61.05;102172.63;5058497;28;45410;-79
2022/03/17 06:44:59;;;;;;;;;7.50;6.25;;;;;10.75;61.55;102172.66;5058209;28;45469;-81
2022/03/17 06:47:24;;;;;;;;;4.75;4.00;;;;;10.75;61.77;102191.09;5057678;28;46160;-84
2022/03/17 06:49:50;;;;;;;;;8.25;8.25;;;;;10.74;61.63;102198.97;5056652;28;45438;-79
2022/03/17 06:52:15;;;;;;;;;5.00;4.75;;;;;10.74;61.26;102202.50;5056605;28;45406;-80
2022/03/17 06:54:41;;;;;;;;;6.00;4.25;;;;;10.72;59.91;102203.31;5075607;28;45426;-82
2022/03/17 06:57:06;;;;;;;;;8.00;6.00;;;;;10.64;59.95;102210.09;5062696;28;45523;-81
2022/03/17 06:59:32;;;;;;;;;5.00;5.00;;;;;10.27;59.45;102157.16;5036983;28;45228;-82
2022/03/17 07:01:57;;;;;;;;;4.00;4.00;;;;;10.58;59.83;102216.03;5036783;28;45475;-83
2022/03/17 07:04:22;;;;;;;;;7.50;7.00;;;;;10.43;59.71;102192.78;5041082;28;45140;-83
2022/03/17 07:06:49;;;;;;;;;9.00;6.50;;;;;10.58;59.34;102216.03;5037543;28;46290;-83
2022/03/17 07:09:14;;;;;;;;;7.00;7.00;;;;;10.62;59.53;102236.41;5038838;28;45459;-81
2022/03/17 07:11:40;;;;;;;;;4.50;4.50;;;;;10.57;59.17;102209.00;5070501;28;45412;-81
2022/03/17 07:14:05;;;;;;;;;5.00;5.00;;;;;10.66;59.03;102233.00;5039568;28;45296;-82
2022/03/17 07:16:31;;;;;;;;;8.00;5.50;;;;;10.48;59.10;102200.81;5038602;28;45798;-83
2022/03/17 07:18:57;;;;;;;;;5.50;5.50;;;;;10.60;59.01;102234.53;5042460;28;45414;-81
2022/03/17 07:21:22;;;;;;;;;7.00;7.00;;;;;10.68;58.57;102246.22;5055322;28;45462;-77
2022/03/17 07:23:48;;;;;;;;;6.25;5.25;;;;;10.66;59.03;102240.91;5055735;28;45405;-84
2022/03/17 07:26:13;;;;;;;;;9.00;7.25;;;;;10.62;58.71;102253.94;5037886;28;45942;-81
2022/03/17 07:28:39;;;;;;;;;4.75;4.75;;;;;10.61;58.23;102258.31;5040665;28;45597;-78
2022/03/17 07:31:04;;;;;;;;;5.00;5.00;;;;;10.63;58.51;102268.91;5046555;28;45156;-81
2022/03/17 07:33:32;;;;;;;;;7.25;6.75;;;;;10.40;57.32;102219.00;5058430;28;45459;-81
2022/03/17 07:35:57;;;;;;;;;8.50;6.25;;;;;10.56;58.10;102242.34;5037860;28;45986;-81
2022/03/17 07:38:23;;;;;;;;;5.00;5.00;;;;;10.50;57.49;102236.00;5036707;28;45327;-83
2022/03/17 07:40:48;;;;;;;;;3.50;3.50;;;;;10.63;57.14;102276.81;5037438;28;45405;-82
2022/03/17 07:43:13;;;;;;;;;6.00;5.25;;;;;10.66;56.67;102280.44;5036288;28;45280;-81
2022/03/17 07:45:39;;;;;;;;;6.00;6.00;;;;;10.47;56.48;102257.88;5044408;28;45639;-82
2022/03/17 07:48:07;;;;;;;;;5.50;5.00;;;;;10.60;56.17;102269.69;5035924;28;45481;-81
2022/03/17 07:50:33;;;;;;;;;10.25;6.50;;;;;10.66;56.42;102277.78;5037392;28;47129;-82
2022/03/17 07:52:59;;;;;;;;;7.00;5.00;;;;;10.48;57.26;102245.59;5041003;28;45524;-82
2022/03/17 07:55:25;;;;;;;;;8.25;7.00;;;;;10.72;57.75;102287.66;5043441;28;46614;-82
2022/03/17 07:57:52;;;;;;;;;8.00;5.75;;;;;10.76;57.56;102289.53;5036358;28;45570;-81
2022/03/17 08:00:17;;;;;;;;;6.00;6.00;;;;;10.59;56.88;102288.09;5063699;28;45530;-82
2022/03/17 08:02:43;;;;;;;;;4.00;4.00;;;;;10.45;56.63;102270.09;5036029;28;45509;-82
2022/03/17 08:05:13;;;;;;;;;8.00;6.75;;;;;10.60;56.93;102305.69;5036256;28;46135;-82
2022/03/17 08:07:39;;;;;;;;;7.25;6.25;;;;;10.69;56.56;102314.78;5036662;28;45383;-82
2022/03/17 08:10:06;;;;;;;;;9.00;7.50;;;;;10.73;56.33;102303.50;5035854;28;45271;-82
2022/03/17 08:12:31;;;;;;;;;3.25;3.00;;;;;10.86;56.63;102320.59;5036635;28;45213;-81
2022/03/17 08:14:58;;;;;;;;;9.25;7.50;;;;;10.85;56.23;102314.44;5037038;28;45319;-82
2022/03/17 08:17:24;;;;;;;;;8.25;8.25;;;;;10.94;56.38;102334.03;5038160;28;45320;-83
2022/03/17 08:19:49;;;;;;;;;8.00;8.00;;;;;10.96;56.37;102335.84;5036663;28;45359;-81
2022/03/17 08:22:14;;;;;;;;;9.00;6.50;;;;;10.82;55.66;102303.78;5036717;28;45352;-82
2022/03/17 08:24:40;;;;;;;;;8.00;6.25;;;;;11.00;56.40;102339.50;5035700;28;45441;-82
2022/03/17 08:27:07;;;;;;;;;6.75;6.75;;;;;10.99;56.13;102345.63;5035957;28;45332;-79
2022/03/17 08:29:32;;;;;;;;;10.25;7.25;;;;;11.02;56.21;102349.25;5038900;28;45258;-79
2022/03/17 08:31:59;;;;;;;;;11.25;7.75;;;;;11.10;56.16;102360.94;5035381;28;45632;-82
2022/03/17 08:34:26;;;;;;;;;6.25;6.25;;;;;11.10;56.47;102355.66;5036076;28;45481;-78
2022/03/17 08:36:54;;;;;;;;;9.25;6.75;;;;;11.12;55.88;102367.13;5036486;28;45283;-83
2022/03/17 08:39:20;;;;;;;;;8.00;8.00;;;;;11.13;56.01;102353.09;5036679;28;45429;-81
2022/03/17 08:41:45;;;;;;;;;8.25;8.25;;;;;11.21;55.38;102358.63;5037020;28;45442;-79
2022/03/17 08:44:11;;;;;;;;;11.25;8.50;;;;;11.33;56.16;102369.53;5036206;28;46214;-78
2022/03/17 08:49:24;;;;;;;;;8.00;8.00;;;;;11.41;54.69;102391.78;5036809;28;45363;-78
2022/03/17 08:51:53;;;;;;;;;11.75;9.25;;;;;11.45;55.68;102394.50;5037062;28;45359;-78
2022/03/17 08:54:22;;;;;;;;;8.25;8.25;;;;;11.42;55.62;102396.19;5036606;28;46317;-78
2022/03/17 08:56:52;;;;;;;;;8.75;8.00;;;;;11.54;55.30;102400.06;5037333;28;45462;-80
2022/03/17 08:59:18;;;;;;;;;8.75;8.00;;;;;11.53;54.77;102409.72;5077205;28;45270;-79
2022/03/17 09:01:44;;;;;;;;;10.00;10.00;;;;;11.37;55.38;102384.63;5080773;28;45302;-79
2022/03/17 09:04:13;;;;;;;;;9.00;6.00;;;;;11.25;55.32;102386.88;5080426;28;45461;-77
2022/03/17 09:06:41;;;;;;;;;9.00;7.00;;;;;11.46;55.63;102418.31;5080872;28;45280;-77
2022/03/17 09:09:07;;;;;;;;;9.75;9.00;;;;;11.56;55.72;102414.22;5080582;28;45273;-79
2022/03/17 09:11:34;;;;;;;;;9.25;8.75;;;;;11.59;55.37;102404.63;5080532;28;45219;-78
2022/03/17 09:13:59;;;;;;;;;8.25;8.25;;;;;11.77;55.72;102425.41;5080318;28;46265;-78
2022/03/17 09:16:25;;;;;;;;;9.25;9.25;;;;;11.77;55.45;102422.75;5080165;28;45415;-78
2022/03/17 09:18:50;;;;;;;;;13.75;10.25;;;;;11.64;54.84;102407.44;5080394;28;45459;-79
2022/03/17 09:21:17;;;;;;;;;10.25;9.25;;;;;11.76;54.78;102431.53;5080408;28;45243;-78
2022/03/17 09:23:43;;;;;;;;;10.25;10.25;;;;;11.83;55.27;102425.63;5080110;28;45643;-77
2022/03/17 09:26:08;;;;;;;;;15.50;10.50;;;;;11.89;54.99;102432.81;5079785;28;45342;-79
2022/03/17 09:28:34;;;;;;;;;7.75;7.75;;;;;11.93;54.46;102435.59;5080006;28;45266;-78
2022/03/17 09:31:03;;;;;;;;;12.50;9.50;;;;;11.96;54.63;102422.47;5080286;28;45378;-77
2022/03/17 09:33:29;;;;;;;;;11.75;10.25;;;;;12.07;53.58;102432.44;5079824;28;45634;-77
2022/03/17 09:35:56;;;;;;;;;16.00;12.25;;;;;12.04;53.99;102442.94;5079749;28;45349;-78
2022/03/17 09:38:22;;;;;;;;;12.00;10.00;;;;;12.23;53.60;102455.81;5080291;28;45433;-78
2022/03/17 09:40:47;;;;;;;;;13.75;12.00;;;;;12.26;53.34;102440.03;5080064;28;45410;-78
2022/03/17 09:43:19;;;;;;;;;11.00;10.75;;;;;12.30;53.39;102456.91;5080074;28;46139;-79
2022/03/17 09:45:53;;;;;;;;;9.25;9.25;;;;;12.27;52.83;102460.31;5079775;28;45443;-77
2022/03/17 09:48:21;;;;;;;;;12.50;11.75;;;;;12.15;53.13;102457.34;5080060;28;45449;-78
2022/03/17 09:50:47;;;;;;;;;13.00;11.00;;;;;12.20;53.09;102466.31;5079918;28;45503;-77
2022/03/17 09:53:13;;;;;;;;;8.00;8.00;;;;;12.15;52.19;102468.81;5079399;27;45461;-79
2022/03/17 09:55:43;;;;;;;;;12.00;11.25;;;;;12.21;52.28;102466.34;5079481;28;45369;-78
2022/03/17 09:58:10;;;;;;;;;10.75;10.50;;;;;12.08;52.15;102429.84;5079477;28;45376;-79
2022/03/17 10:00:48;;;;;;;;;13.00;11.50;;;;;12.41;52.21;102469.53;5079621;27;45361;-78
2022/03/17 10:03:20;;;;;;;;;8.75;8.75;;;;;12.50;51.44;102479.47;5079216;28;45476;-78
2022/03/17 10:05:47;;;;;;;;;9.00;5.00;;;;;12.50;51.68;102480.38;5079519;28;45383;-79
2022/03/17 10:08:13;;;;;;;;;11.75;11.75;;;;;12.42;51.67;102484.53;5078163;28;45329;-77
2022/03/17 10:10:41;;;;;;;;;18.50;13.75;;;;;12.37;51.94;102486.16;5079567;28;45388;-78
2022/03/17 10:13:11;;;;;;;;;9.75;8.75;;;;;12.24;51.87;102474.34;5078391;28;47004;-79
2022/03/17 10:15:37;;;;;;;;;11.50;11.50;;;;;12.17;51.65;102463.56;5079216;28;45439;-79
2022/03/17 10:18:26;;;;;;;;;5.50;5.50;;;;;12.14;52.29;102463.47;5079487;28;45461;-78
2022/03/17 10:21:11;;;;;;;;;10.25;10.25;;;;;12.46;51.62;102491.69;5079370;28;45500;-79
2022/03/17 10:24:08;;;;;;;;;9.75;9.25;;;;;12.39;51.43;102468.63;5079088;28;45203;-78
2022/03/17 10:26:46;;;;;;;;;12.25;9.75;;;;;12.38;50.97;102447.44;5079079;28;45211;-78
2022/03/17 10:29:31;;;;;;;;;15.75;12.00;;;;;12.66;51.37;102504.59;5078942;28;45406;-78
2022/03/17 10:32:07;;;;;;;;;7.50;7.50;;;;;12.58;50.98;102496.44;5079254;28;45251;-79
2022/03/17 10:34:51;;;;;;;;;12.00;10.75;;;;;12.53;51.75;102512.16;5079024;28;46239;-81
2022/03/17 10:37:19;;;;;;;;;10.75;10.75;;;;;12.43;51.80;102510.13;5079034;28;45296;-84
2022/03/17 10:39:47;;;;;;;;;11.00;10.00;;;;;12.51;51.68;102511.22;5094850;27;45395;-81
2022/03/17 10:42:17;;;;;;;;;10.00;10.00;;;;;12.54;51.30;102513.94;5079071;28;45180;-81
2022/03/17 10:44:53;;;;;;;;;9.00;7.75;;;;;12.58;51.39;102514.94;5078544;28;46087;-79
2022/03/17 10:47:36;;;;;;;;;13.25;10.75;;;;;12.57;49.96;102517.56;5078595;28;45419;-78
2022/03/17 10:50:17;;;;;;;;;12.75;10.25;;;;;12.53;50.99;102530.66;5078941;28;45361;-77
2022/03/17 10:52:43;;;;;;;;;13.00;11.00;;;;;12.54;51.37;102521.88;5078928;28;45175;-77
2022/03/17 10:55:09;;;;;;;;;11.75;11.75;;;;;12.52;50.50;102510.38;5078939;28;45874;-78
2022/03/17 10:57:35;;;;;;;;;12.75;12.25;;;;;12.67;51.00;102522.25;5078695;28;45562;-79
2022/03/17 11:00:00;;;;;;;;;12.75;12.75;;;;;12.74;51.07;102526.81;5079062;28;45435;-78
2022/03/17 11:02:26;;;;;;;;;14.25;11.25;;;;;12.78;49.87;102529.59;5079257;28;45344;-81
2022/03/17 11:04:52;;;;;;;;;13.75;13.75;;;;;12.63;50.29;102499.19;5078470;28;45455;-78
2022/03/17 11:07:19;;;;;;;;;11.75;11.75;;;;;12.87;50.61;102531.59;5078580;28;45462;-79
2022/03/17 11:09:46;;;;;;;;;6.00;6.00;;;;;12.89;49.89;102537.81;5078881;28;45385;-77
2022/03/17 11:12:18;;;;;;;;;11.00;11.00;;;;;12.96;49.63;102542.44;5078878;28;45221;-77
2022/03/17 11:14:46;;;;;;;;;9.25;9.25;;;;;12.92;49.12;102537.91;5078473;28;46992;-77
2022/03/17 11:17:16;;;;;;;;;12.25;12.25;;;;;12.92;49.87;102547.59;5078551;28;45218;-78
2022/03/17 11:19:43;;;;;;;;;11.75;11.75;;;;;12.93;49.60;102549.38;5078440;28;45317;-78
2022/03/17 11:22:14;;;;;;;;;13.25;13.25;;;;;12.78;49.56;102558.69;5078325;28;45497;-79
2022/03/17 11:24:39;;;;;;;;;10.25;9.25;;;;;12.69;49.53;102537.28;5078033;28;45451;-79
2022/03/17 11:27:15;;;;;;;;;9.00;9.00;;;;;12.80;49.70;102556.09;5078967;28;45404;-78
2022/03/17 11:29:46;;;;;;;;;9.00;8.50;;;;;12.73;49.68;102541.78;5078610;28;45361;-78